KDNV/DNV METAR and TAF weather

Enter ICAO airport designator
Station Type Date Time Source
KDNV METAR 2019/11/18 14:15 UTC NOAA

KDNV 181415Z AUTO 31006KT 3SM BR OVC007 03/02 A2980 RMK AO2 T00250015


Station Type Date Time Source
KDNV Decoded METAR 2019/11/18 14:15 UTC NOAA

Danville, Vermilion County Airport, IL, United States (KDNV) 40-11-58N 087-35-44W
Nov 18, 2019 - 09:15 AM EST / 2019.11.18 1415 UTC
Wind: from the NW (310 degrees) at 7 MPH (6 KT):0
Visibility: 3 mile(s):0
Sky conditions: overcast
Weather: mist
Temperature: 36.5 F (2.5 C)
Dew Point: 34.7 F (1.5 C)
Relative Humidity: 93%
Pressure (altimeter): 29.8 in. Hg (1009 hPa)
ob: KDNV 181415Z AUTO 31006KT 3SM BR OVC007 03/02 A2980 RMK AO2 T00250015
cycle: 14

Station Type Date Time Source
KDNV TAF UTC NOAA

Error!

Example: see airport list